sensor_id;sensor_type;location;lat;lon;timestamp;pressure;altitude;pressure_sealevel;temperature
73894;BMP280;62699;50.534;12.784;2023-06-22T00:01:43;96759.94;;;17.13
73894;BMP280;62699;50.534;12.784;2023-06-22T00:06:44;96762.03;;;17.07
73894;BMP280;62699;50.534;12.784;2023-06-22T00:11:45;96748.16;;;16.98
73894;BMP280;62699;50.534;12.784;2023-06-22T00:16:46;96749.84;;;16.88
73894;BMP280;62699;50.534;12.784;2023-06-22T00:21:50;96752.56;;;16.88
73894;BMP280;62699;50.534;12.784;2023-06-22T00:26:52;96751.28;;;16.89
73894;BMP280;62699;50.534;12.784;2023-06-22T00:31:53;96764.31;;;16.83
73894;BMP280;62699;50.534;12.784;2023-06-22T00:36:54;96755.00;;;16.78
73894;BMP280;62699;50.534;12.784;2023-06-22T00:41:54;96742.25;;;16.73
73894;BMP280;62699;50.534;12.784;2023-06-22T00:46:56;96744.88;;;16.65
73894;BMP280;62699;50.534;12.784;2023-06-22T00:51:57;96738.72;;;16.65
73894;BMP280;62699;50.534;12.784;2023-06-22T00:56:57;96733.19;;;16.57
73894;BMP280;62699;50.534;12.784;2023-06-22T01:01:58;96734.03;;;16.52
73894;BMP280;62699;50.534;12.784;2023-06-22T01:07:06;96737.78;;;16.49
73894;BMP280;62699;50.534;12.784;2023-06-22T01:12:12;96730.47;;;16.44
73894;BMP280;62699;50.534;12.784;2023-06-22T01:17:13;96744.91;;;16.39
73894;BMP280;62699;50.534;12.784;2023-06-22T01:22:17;96740.09;;;16.32
73894;BMP280;62699;50.534;12.784;2023-06-22T01:32:42;96730.06;;;16.14
73894;BMP280;62699;50.534;12.784;2023-06-22T01:37:43;96733.09;;;16.10
73894;BMP280;62699;50.534;12.784;2023-06-22T01:42:44;96727.78;;;16.05
73894;BMP280;62699;50.534;12.784;2023-06-22T01:47:44;96723.69;;;15.98
73894;BMP280;62699;50.534;12.784;2023-06-22T01:52:45;96719.50;;;15.97
73894;BMP280;62699;50.534;12.784;2023-06-22T01:57:45;96719.59;;;15.92
73894;BMP280;62699;50.534;12.784;2023-06-22T02:08:09;96712.47;;;15.75
73894;BMP280;62699;50.534;12.784;2023-06-22T02:13:10;96721.13;;;15.74
73894;BMP280;62699;50.534;12.784;2023-06-22T02:18:12;96723.00;;;15.79
73894;BMP280;62699;50.534;12.784;2023-06-22T02:23:13;96724.28;;;15.78
73894;BMP280;62699;50.534;12.784;2023-06-22T02:28:13;96730.94;;;15.77
73894;BMP280;62699;50.534;12.784;2023-06-22T02:33:13;96732.13;;;15.82
73894;BMP280;62699;50.534;12.784;2023-06-22T02:38:13;96728.63;;;15.68
73894;BMP280;62699;50.534;12.784;2023-06-22T02:43:14;96722.25;;;15.65
73894;BMP280;62699;50.534;12.784;2023-06-22T02:48:15;96725.50;;;15.64
73894;BMP280;62699;50.534;12.784;2023-06-22T02:53:15;96731.31;;;15.55
73894;BMP280;62699;50.534;12.784;2023-06-22T02:58:16;96727.16;;;15.54
73894;BMP280;62699;50.534;12.784;2023-06-22T03:03:17;96730.06;;;15.56
73894;BMP280;62699;50.534;12.784;2023-06-22T03:08:19;96704.28;;;15.62
73894;BMP280;62699;50.534;12.784;2023-06-22T03:13:19;96705.16;;;15.70
73894;BMP280;62699;50.534;12.784;2023-06-22T03:18:19;96699.75;;;15.84
73894;BMP280;62699;50.534;12.784;2023-06-22T03:23:22;96696.28;;;15.96
73894;BMP280;62699;50.534;12.784;2023-06-22T03:28:22;96686.59;;;16.01
73894;BMP280;62699;50.534;12.784;2023-06-22T03:33:22;96698.84;;;16.20
73894;BMP280;62699;50.534;12.784;2023-06-22T03:38:24;96700.28;;;16.08
73894;BMP280;62699;50.534;12.784;2023-06-22T03:43:25;96710.63;;;16.23
73894;BMP280;62699;50.534;12.784;2023-06-22T03:48:25;96709.34;;;16.37
73894;BMP280;62699;50.534;12.784;2023-06-22T03:53:25;96711.34;;;16.50
73894;BMP280;62699;50.534;12.784;2023-06-22T03:58:25;96729.31;;;16.40
73894;BMP280;62699;50.534;12.784;2023-06-22T04:03:26;96736.84;;;16.47
73894;BMP280;62699;50.534;12.784;2023-06-22T04:08:26;96743.81;;;16.68
73894;BMP280;62699;50.534;12.784;2023-06-22T04:13:26;96763.19;;;17.12
73894;BMP280;62699;50.534;12.784;2023-06-22T04:18:26;96792.75;;;17.28
73894;BMP280;62699;50.534;12.784;2023-06-22T04:23:27;96832.25;;;17.76
73894;BMP280;62699;50.534;12.784;2023-06-22T04:28:27;96855.53;;;17.64
73894;BMP280;62699;50.534;12.784;2023-06-22T04:33:29;96840.50;;;17.50
73894;BMP280;62699;50.534;12.784;2023-06-22T04:38:29;96821.25;;;17.48
73894;BMP280;62699;50.534;12.784;2023-06-22T04:43:33;96826.13;;;17.63
73894;BMP280;62699;50.534;12.784;2023-06-22T04:48:34;96822.34;;;18.79
73894;BMP280;62699;50.534;12.784;2023-06-22T04:53:34;96829.69;;;20.81
73894;BMP280;62699;50.534;12.784;2023-06-22T04:58:34;96805.19;;;21.23
73894;BMP280;62699;50.534;12.784;2023-06-22T05:03:35;96793.47;;;22.13
73894;BMP280;62699;50.534;12.784;2023-06-22T05:08:36;96778.03;;;24.66
73894;BMP280;62699;50.534;12.784;2023-06-22T05:13:37;96773.69;;;26.87
73894;BMP280;62699;50.534;12.784;2023-06-22T05:18:37;96755.50;;;26.05
73894;BMP280;62699;50.534;12.784;2023-06-22T05:23:37;96744.31;;;24.97
73894;BMP280;62699;50.534;12.784;2023-06-22T05:28:37;96750.00;;;24.30
73894;BMP280;62699;50.534;12.784;2023-06-22T05:33:38;96738.16;;;22.78
73894;BMP280;62699;50.534;12.784;2023-06-22T05:38:39;96718.00;;;23.58
73894;BMP280;62699;50.534;12.784;2023-06-22T05:43:40;96707.56;;;27.02
73894;BMP280;62699;50.534;12.784;2023-06-22T05:48:40;96662.16;;;27.79
73894;BMP280;62699;50.534;12.784;2023-06-22T05:53:40;96603.59;;;27.46
73894;BMP280;62699;50.534;12.784;2023-06-22T05:58:41;96574.56;;;27.72
73894;BMP280;62699;50.534;12.784;2023-06-22T06:03:41;96556.94;;;27.65
73894;BMP280;62699;50.534;12.784;2023-06-22T06:08:41;96554.72;;;27.75
73894;BMP280;62699;50.534;12.784;2023-06-22T06:13:41;96549.38;;;31.15
73894;BMP280;62699;50.534;12.784;2023-06-22T06:18:42;96557.22;;;31.57
73894;BMP280;62699;50.534;12.784;2023-06-22T06:23:42;96551.25;;;32.67
73894;BMP280;62699;50.534;12.784;2023-06-22T06:28:43;96572.63;;;34.02
73894;BMP280;62699;50.534;12.784;2023-06-22T06:33:43;96590.56;;;34.49
73894;BMP280;62699;50.534;12.784;2023-06-22T06:38:44;96604.03;;;35.17
73894;BMP280;62699;50.534;12.784;2023-06-22T06:43:45;96614.34;;;34.77
73894;BMP280;62699;50.534;12.784;2023-06-22T06:48:46;96627.88;;;35.19
73894;BMP280;62699;50.534;12.784;2023-06-22T06:53:47;96621.09;;;33.62
73894;BMP280;62699;50.534;12.784;2023-06-22T06:58:50;96643.53;;;32.75
73894;BMP280;62699;50.534;12.784;2023-06-22T07:03:50;96644.94;;;31.96
73894;BMP280;62699;50.534;12.784;2023-06-22T07:08:50;96639.56;;;32.82
73894;BMP280;62699;50.534;12.784;2023-06-22T07:13:51;96633.63;;;32.50
73894;BMP280;62699;50.534;12.784;2023-06-22T07:18:51;96636.91;;;32.65
73894;BMP280;62699;50.534;12.784;2023-06-22T07:23:51;96642.53;;;32.06
73894;BMP280;62699;50.534;12.784;2023-06-22T07:28:52;96638.03;;;33.44
73894;BMP280;62699;50.534;12.784;2023-06-22T07:33:52;96658.41;;;32.01
73894;BMP280;62699;50.534;12.784;2023-06-22T07:38:54;96651.38;;;33.97
73894;BMP280;62699;50.534;12.784;2023-06-22T07:43:55;96660.28;;;33.66
73894;BMP280;62699;50.534;12.784;2023-06-22T07:48:56;96649.91;;;33.45
73894;BMP280;62699;50.534;12.784;2023-06-22T07:53:57;96656.34;;;34.52
73894;BMP280;62699;50.534;12.784;2023-06-22T07:58:57;96663.81;;;34.71
73894;BMP280;62699;50.534;12.784;2023-06-22T08:03:59;96652.38;;;33.82
73894;BMP280;62699;50.534;12.784;2023-06-22T08:08:59;96642.78;;;33.89
73894;BMP280;62699;50.534;12.784;2023-06-22T08:13:59;96648.44;;;33.20
73894;BMP280;62699;50.534;12.784;2023-06-22T08:19:00;96642.31;;;32.80
73894;BMP280;62699;50.534;12.784;2023-06-22T08:24:00;96642.69;;;32.10
73894;BMP280;62699;50.534;12.784;2023-06-22T08:29:00;96628.44;;;32.41
73894;BMP280;62699;50.534;12.784;2023-06-22T08:34:00;96623.94;;;32.32
73894;BMP280;62699;50.534;12.784;2023-06-22T08:39:02;96622.28;;;31.66
73894;BMP280;62699;50.534;12.784;2023-06-22T08:44:04;96606.75;;;31.98
73894;BMP280;62699;50.534;12.784;2023-06-22T08:49:05;96607.47;;;31.07
73894;BMP280;62699;50.534;12.784;2023-06-22T08:54:06;96610.34;;;31.26
73894;BMP280;62699;50.534;12.784;2023-06-22T08:59:06;96601.50;;;30.79
73894;BMP280;62699;50.534;12.784;2023-06-22T09:04:11;96602.16;;;31.30
73894;BMP280;62699;50.534;12.784;2023-06-22T09:09:12;96599.16;;;31.61
73894;BMP280;62699;50.534;12.784;2023-06-22T09:14:12;96592.53;;;31.33
73894;BMP280;62699;50.534;12.784;2023-06-22T09:19:13;96582.78;;;31.52
73894;BMP280;62699;50.534;12.784;2023-06-22T09:24:13;96572.97;;;31.14
73894;BMP280;62699;50.534;12.784;2023-06-22T09:29:14;96568.19;;;31.16
73894;BMP280;62699;50.534;12.784;2023-06-22T09:34:16;96562.09;;;30.67
73894;BMP280;62699;50.534;12.784;2023-06-22T09:39:20;96567.34;;;31.49
73894;BMP280;62699;50.534;12.784;2023-06-22T09:44:21;96557.66;;;30.95
73894;BMP280;62699;50.534;12.784;2023-06-22T09:49:21;96553.75;;;31.20
73894;BMP280;62699;50.534;12.784;2023-06-22T09:54:22;96550.81;;;31.72
73894;BMP280;62699;50.534;12.784;2023-06-22T09:59:23;96554.53;;;31.22
73894;BMP280;62699;50.534;12.784;2023-06-22T10:04:24;96552.53;;;31.25
73894;BMP280;62699;50.534;12.784;2023-06-22T10:09:26;96544.34;;;30.93
73894;BMP280;62699;50.534;12.784;2023-06-22T10:14:28;96546.50;;;31.30
73894;BMP280;62699;50.534;12.784;2023-06-22T10:19:30;96550.72;;;31.14
73894;BMP280;62699;50.534;12.784;2023-06-22T10:24:31;96529.00;;;31.28
73894;BMP280;62699;50.534;12.784;2023-06-22T10:29:31;96513.22;;;31.15
73894;BMP280;62699;50.534;12.784;2023-06-22T10:34:32;96518.97;;;31.01
73894;BMP280;62699;50.534;12.784;2023-06-22T10:39:33;96521.50;;;31.13
73894;BMP280;62699;50.534;12.784;2023-06-22T10:44:36;96513.53;;;31.23
73894;BMP280;62699;50.534;12.784;2023-06-22T10:49:36;96512.19;;;31.43
73894;BMP280;62699;50.534;12.784;2023-06-22T10:54:37;96523.09;;;31.57
73894;BMP280;62699;50.534;12.784;2023-06-22T10:59:37;96515.09;;;30.90
73894;BMP280;62699;50.534;12.784;2023-06-22T11:04:39;96508.81;;;31.27
73894;BMP280;62699;50.534;12.784;2023-06-22T11:09:40;96509.91;;;31.57
73894;BMP280;62699;50.534;12.784;2023-06-22T11:14:41;96498.16;;;32.20
73894;BMP280;62699;50.534;12.784;2023-06-22T11:19:44;96492.81;;;31.87
73894;BMP280;62699;50.534;12.784;2023-06-22T11:24:45;96493.56;;;31.48
73894;BMP280;62699;50.534;12.784;2023-06-22T11:29:46;96499.44;;;31.56
73894;BMP280;62699;50.534;12.784;2023-06-22T11:34:48;96490.66;;;31.83
73894;BMP280;62699;50.534;12.784;2023-06-22T11:39:50;96490.28;;;31.73
73894;BMP280;62699;50.534;12.784;2023-06-22T11:44:50;96463.50;;;32.05
73894;BMP280;62699;50.534;12.784;2023-06-22T11:49:51;96461.59;;;31.49
73894;BMP280;62699;50.534;12.784;2023-06-22T11:54:54;96454.75;;;31.13
73894;BMP280;62699;50.534;12.784;2023-06-22T11:59:55;96451.56;;;31.81
73894;BMP280;62699;50.534;12.784;2023-06-22T12:04:56;96446.47;;;31.34
73894;BMP280;62699;50.534;12.784;2023-06-22T12:09:59;96438.06;;;31.32
73894;BMP280;62699;50.534;12.784;2023-06-22T12:15:00;96435.31;;;31.54
73894;BMP280;62699;50.534;12.784;2023-06-22T12:20:04;96418.44;;;31.89
73894;BMP280;62699;50.534;12.784;2023-06-22T12:25:06;96411.69;;;31.96
73894;BMP280;62699;50.534;12.784;2023-06-22T12:30:08;96410.59;;;32.27
73894;BMP280;62699;50.534;12.784;2023-06-22T12:35:08;96408.66;;;32.79
73894;BMP280;62699;50.534;12.784;2023-06-22T12:40:13;96425.53;;;32.59
73894;BMP280;62699;50.534;12.784;2023-06-22T12:45:14;96409.78;;;32.46
73894;BMP280;62699;50.534;12.784;2023-06-22T12:50:14;96397.88;;;33.16
73894;BMP280;62699;50.534;12.784;2023-06-22T12:55:15;96390.34;;;33.49
73894;BMP280;62699;50.534;12.784;2023-06-22T13:00:15;96381.69;;;32.62
73894;BMP280;62699;50.534;12.784;2023-06-22T13:05:16;96366.31;;;33.37
73894;BMP280;62699;50.534;12.784;2023-06-22T13:10:16;96368.31;;;33.07
73894;BMP280;62699;50.534;12.784;2023-06-22T13:15:17;96369.00;;;33.31
73894;BMP280;62699;50.534;12.784;2023-06-22T13:20:17;96369.16;;;32.63
73894;BMP280;62699;50.534;12.784;2023-06-22T13:25:19;96364.22;;;32.37
73894;BMP280;62699;50.534;12.784;2023-06-22T13:30:22;96351.63;;;33.35
73894;BMP280;62699;50.534;12.784;2023-06-22T13:35:22;96345.63;;;33.19
73894;BMP280;62699;50.534;12.784;2023-06-22T13:40:24;96334.13;;;33.07
73894;BMP280;62699;50.534;12.784;2023-06-22T13:45:26;96332.25;;;33.13
73894;BMP280;62699;50.534;12.784;2023-06-22T13:50:27;96323.16;;;32.87
73894;BMP280;62699;50.534;12.784;2023-06-22T13:55:29;96316.31;;;32.67
73894;BMP280;62699;50.534;12.784;2023-06-22T14:00:30;96316.53;;;33.00
73894;BMP280;62699;50.534;12.784;2023-06-22T14:05:31;96313.84;;;34.21
73894;BMP280;62699;50.534;12.784;2023-06-22T14:10:32;96309.38;;;33.78
73894;BMP280;62699;50.534;12.784;2023-06-22T14:15:32;96303.13;;;33.78
73894;BMP280;62699;50.534;12.784;2023-06-22T14:20:32;96288.50;;;33.50
73894;BMP280;62699;50.534;12.784;2023-06-22T14:25:36;96270.25;;;33.45
73894;BMP280;62699;50.534;12.784;2023-06-22T14:30:36;96265.13;;;32.56
73894;BMP280;62699;50.534;12.784;2023-06-22T14:35:36;96269.47;;;32.61
73894;BMP280;62699;50.534;12.784;2023-06-22T14:40:37;96257.09;;;32.94
73894;BMP280;62699;50.534;12.784;2023-06-22T14:45:37;96259.81;;;32.92
73894;BMP280;62699;50.534;12.784;2023-06-22T14:50:37;96263.47;;;32.98
73894;BMP280;62699;50.534;12.784;2023-06-22T14:55:37;96244.34;;;32.87
73894;BMP280;62699;50.534;12.784;2023-06-22T15:00:38;96242.22;;;32.85
73894;BMP280;62699;50.534;12.784;2023-06-22T15:05:39;96240.16;;;32.60
73894;BMP280;62699;50.534;12.784;2023-06-22T15:10:40;96240.56;;;32.01
73894;BMP280;62699;50.534;12.784;2023-06-22T15:15:40;96247.06;;;31.64
73894;BMP280;62699;50.534;12.784;2023-06-22T15:20:41;96244.91;;;31.39
73894;BMP280;62699;50.534;12.784;2023-06-22T15:25:42;96239.00;;;31.29
73894;BMP280;62699;50.534;12.784;2023-06-22T15:30:44;96226.16;;;31.61
73894;BMP280;62699;50.534;12.784;2023-06-22T15:35:44;96218.56;;;31.88
73894;BMP280;62699;50.534;12.784;2023-06-22T15:40:46;96207.81;;;31.54
73894;BMP280;62699;50.534;12.784;2023-06-22T15:45:47;96192.22;;;31.67
73894;BMP280;62699;50.534;12.784;2023-06-22T15:50:49;96192.09;;;31.87
73894;BMP280;62699;50.534;12.784;2023-06-22T15:55:50;96181.03;;;31.43
73894;BMP280;62699;50.534;12.784;2023-06-22T16:00:51;96178.44;;;31.49
73894;BMP280;62699;50.534;12.784;2023-06-22T16:05:51;96159.09;;;31.10
73894;BMP280;62699;50.534;12.784;2023-06-22T16:10:52;96162.16;;;31.18
73894;BMP280;62699;50.534;12.784;2023-06-22T16:15:52;96154.56;;;30.99
73894;BMP280;62699;50.534;12.784;2023-06-22T16:20:52;96157.53;;;30.83
73894;BMP280;62699;50.534;12.784;2023-06-22T16:25:53;96156.91;;;30.85
73894;BMP280;62699;50.534;12.784;2023-06-22T16:30:55;96150.84;;;30.90
73894;BMP280;62699;50.534;12.784;2023-06-22T16:35:57;96139.63;;;30.88
73894;BMP280;62699;50.534;12.784;2023-06-22T16:40:59;96143.13;;;30.89
73894;BMP280;62699;50.534;12.784;2023-06-22T16:45:59;96127.41;;;30.76
73894;BMP280;62699;50.534;12.784;2023-06-22T16:51:00;96125.53;;;30.41
73894;BMP280;62699;50.534;12.784;2023-06-22T16:56:01;96112.28;;;30.40
73894;BMP280;62699;50.534;12.784;2023-06-22T17:01:06;96101.66;;;30.34
73894;BMP280;62699;50.534;12.784;2023-06-22T17:06:09;96097.34;;;30.09
73894;BMP280;62699;50.534;12.784;2023-06-22T17:11:12;96110.00;;;29.95
73894;BMP280;62699;50.534;12.784;2023-06-22T17:16:13;96093.19;;;29.91
73894;BMP280;62699;50.534;12.784;2023-06-22T17:21:22;96110.81;;;29.80
73894;BMP280;62699;50.534;12.784;2023-06-22T17:26:24;96100.94;;;29.57
73894;BMP280;62699;50.534;12.784;2023-06-22T17:31:35;96100.94;;;29.57
73894;BMP280;62699;50.534;12.784;2023-06-22T17:36:46;96097.63;;;29.43
73894;BMP280;62699;50.534;12.784;2023-06-22T17:41:53;96080.78;;;29.37
73894;BMP280;62699;50.534;12.784;2023-06-22T17:46:56;96068.91;;;29.17
73894;BMP280;62699;50.534;12.784;2023-06-22T17:51:57;96061.63;;;29.08
73894;BMP280;62699;50.534;12.784;2023-06-22T17:56:57;96044.81;;;28.86
73894;BMP280;62699;50.534;12.784;2023-06-22T18:02:06;96036.72;;;28.74
73894;BMP280;62699;50.534;12.784;2023-06-22T18:07:07;96031.88;;;28.57
73894;BMP280;62699;50.534;12.784;2023-06-22T18:12:09;96023.13;;;28.47
73894;BMP280;62699;50.534;12.784;2023-06-22T18:17:10;96014.06;;;28.29
73894;BMP280;62699;50.534;12.784;2023-06-22T18:22:10;96005.25;;;28.17
73894;BMP280;62699;50.534;12.784;2023-06-22T18:27:11;95981.97;;;28.07
73894;BMP280;62699;50.534;12.784;2023-06-22T18:32:11;95981.81;;;27.87
73894;BMP280;62699;50.534;12.784;2023-06-22T18:37:15;95987.47;;;27.73
73894;BMP280;62699;50.534;12.784;2023-06-22T18:42:15;95995.38;;;27.50
73894;BMP280;62699;50.534;12.784;2023-06-22T18:47:26;96032.78;;;27.21
73894;BMP280;62699;50.534;12.784;2023-06-22T18:52:27;96037.75;;;27.09
73894;BMP280;62699;50.534;12.784;2023-06-22T18:57:29;96047.06;;;27.02
73894;BMP280;62699;50.534;12.784;2023-06-22T19:12:54;96023.41;;;26.70
73894;BMP280;62699;50.534;12.784;2023-06-22T19:17:59;96019.13;;;26.67
73894;BMP280;62699;50.534;12.784;2023-06-22T19:23:00;95992.25;;;26.54
73894;BMP280;62699;50.534;12.784;2023-06-22T19:28:01;95971.06;;;26.58
73894;BMP280;62699;50.534;12.784;2023-06-22T19:33:02;95959.34;;;26.58
73894;BMP280;62699;50.534;12.784;2023-06-22T19:38:08;95958.53;;;26.42
73894;BMP280;62699;50.534;12.784;2023-06-22T19:43:12;95949.06;;;26.31
73894;BMP280;62699;50.534;12.784;2023-06-22T19:48:14;95990.25;;;26.41
73894;BMP280;62699;50.534;12.784;2023-06-22T19:53:15;96008.53;;;26.48
73894;BMP280;62699;50.534;12.784;2023-06-22T19:58:16;95997.91;;;26.56
73894;BMP280;62699;50.534;12.784;2023-06-22T20:03:17;96012.81;;;26.64
73894;BMP280;62699;50.534;12.784;2023-06-22T20:08:19;96020.88;;;26.60
73894;BMP280;62699;50.534;12.784;2023-06-22T20:13:20;95989.63;;;26.56
73894;BMP280;62699;50.534;12.784;2023-06-22T20:18:22;95969.78;;;26.46
73894;BMP280;62699;50.534;12.784;2023-06-22T20:23:22;95890.97;;;26.29
73894;BMP280;62699;50.534;12.784;2023-06-22T20:28:24;95845.47;;;26.15
73894;BMP280;62699;50.534;12.784;2023-06-22T20:33:25;95858.25;;;25.94
73894;BMP280;62699;50.534;12.784;2023-06-22T20:38:26;95873.69;;;25.72
73894;BMP280;62699;50.534;12.784;2023-06-22T20:43:28;95913.59;;;25.44
73894;BMP280;62699;50.534;12.784;2023-06-22T20:48:28;95955.31;;;25.25
73894;BMP280;62699;50.534;12.784;2023-06-22T20:53:30;95985.31;;;25.07
73894;BMP280;62699;50.534;12.784;2023-06-22T20:58:31;96004.13;;;25.11
73894;BMP280;62699;50.534;12.784;2023-06-22T21:03:31;96029.63;;;25.11
73894;BMP280;62699;50.534;12.784;2023-06-22T21:08:36;96024.50;;;25.06
73894;BMP280;62699;50.534;12.784;2023-06-22T21:13:38;96044.56;;;25.08
73894;BMP280;62699;50.534;12.784;2023-06-22T21:18:41;96134.81;;;24.96
73894;BMP280;62699;50.534;12.784;2023-06-22T21:23:44;96123.66;;;24.13
73894;BMP280;62699;50.534;12.784;2023-06-22T21:28:45;96170.72;;;22.50
73894;BMP280;62699;50.534;12.784;2023-06-22T21:33:46;96127.13;;;20.81
73894;BMP280;62699;50.534;12.784;2023-06-22T21:38:49;96123.28;;;20.14
73894;BMP280;62699;50.534;12.784;2023-06-22T21:43:49;96192.47;;;19.89
73894;BMP280;62699;50.534;12.784;2023-06-22T21:48:51;96188.44;;;19.90
73894;BMP280;62699;50.534;12.784;2023-06-22T21:53:54;96187.81;;;19.99
73894;BMP280;62699;50.534;12.784;2023-06-22T21:58:56;96146.28;;;20.11
73894;BMP280;62699;50.534;12.784;2023-06-22T22:03:56;96122.44;;;19.94
73894;BMP280;62699;50.534;12.784;2023-06-22T22:08:58;96126.69;;;20.05
73894;BMP280;62699;50.534;12.784;2023-06-22T22:13:59;96185.72;;;20.08
73894;BMP280;62699;50.534;12.784;2023-06-22T22:18:59;96175.88;;;20.05
73894;BMP280;62699;50.534;12.784;2023-06-22T22:24:01;96158.19;;;20.06
73894;BMP280;62699;50.534;12.784;2023-06-22T22:29:04;96179.91;;;20.04
73894;BMP280;62699;50.534;12.784;2023-06-22T22:34:07;96194.69;;;20.00
73894;BMP280;62699;50.534;12.784;2023-06-22T22:39:09;96256.78;;;20.08
73894;BMP280;62699;50.534;12.784;2023-06-22T22:44:10;96289.88;;;19.94
73894;BMP280;62699;50.534;12.784;2023-06-22T22:49:12;96303.06;;;20.06
73894;BMP280;62699;50.534;12.784;2023-06-22T22:54:13;96266.41;;;20.09
73894;BMP280;62699;50.534;12.784;2023-06-22T22:59:14;96239.56;;;20.15
73894;BMP280;62699;50.534;12.784;2023-06-22T23:04:14;96244.53;;;20.09
73894;BMP280;62699;50.534;12.784;2023-06-22T23:09:18;96230.72;;;20.07
73894;BMP280;62699;50.534;12.784;2023-06-22T23:14:18;96228.84;;;19.92
73894;BMP280;62699;50.534;12.784;2023-06-22T23:19:19;96214.19;;;19.63
73894;BMP280;62699;50.534;12.784;2023-06-22T23:24:21;96194.91;;;19.61
73894;BMP280;62699;50.534;12.784;2023-06-22T23:29:22;96187.94;;;19.67
73894;BMP280;62699;50.534;12.784;2023-06-22T23:34:23;96168.50;;;19.80
73894;BMP280;62699;50.534;12.784;2023-06-22T23:39:23;96140.31;;;19.78
73894;BMP280;62699;50.534;12.784;2023-06-22T23:44:24;96128.09;;;19.79
73894;BMP280;62699;50.534;12.784;2023-06-22T23:49:26;96079.94;;;19.83
73894;BMP280;62699;50.534;12.784;2023-06-22T23:54:29;96026.75;;;19.84
73894;BMP280;62699;50.534;12.784;2023-06-22T23:59:29;96002.72;;;19.83
